createdAt,value
2023-05-09T00:00:33.557Z,59.77
2023-05-09T00:01:33.572Z,61.18
2023-05-09T00:02:33.579Z,58.52
2023-05-09T00:03:33.556Z,59.19
2023-05-09T00:04:33.571Z,59.37
2023-05-09T00:05:33.553Z,56.60
2023-05-09T00:06:33.629Z,60.01
2023-05-09T00:07:33.520Z,58.24
2023-05-09T00:08:33.492Z,56.82
2023-05-09T00:09:33.504Z,60.41
2023-05-09T00:10:33.495Z,62.46
2023-05-09T00:11:33.495Z,60.16
2023-05-09T00:12:33.530Z,59.03
2023-05-09T00:13:33.503Z,57.35
2023-05-09T00:14:33.613Z,56.85
2023-05-09T00:15:33.462Z,58.40
2023-05-09T00:16:33.467Z,60.41
2023-05-09T00:17:33.498Z,60.06
2023-05-09T00:18:33.422Z,59.47
2023-05-09T00:19:33.489Z,58.52
2023-05-09T00:20:33.415Z,61.59
2023-05-09T00:21:33.446Z,61.74
2023-05-09T00:22:33.489Z,60.43
2023-05-09T00:23:33.420Z,62.55
2023-05-09T00:24:33.388Z,61.34
2023-05-09T00:25:33.450Z,56.68
2023-05-09T00:26:33.410Z,60.80
2023-05-09T00:27:33.387Z,60.74
2023-05-09T00:28:33.365Z,61.26
2023-05-09T00:29:33.366Z,59.23
2023-05-09T00:30:33.372Z,61.89
2023-05-09T00:31:33.390Z,61.49
2023-05-09T00:32:33.418Z,58.68
2023-05-09T00:33:33.398Z,57.11
2023-05-09T00:34:33.330Z,61.09
2023-05-09T00:35:33.350Z,60.02
2023-05-09T00:36:33.313Z,59.65
2023-05-09T00:37:33.323Z,61.00
2023-05-09T00:38:33.385Z,59.60
2023-05-09T00:39:33.327Z,58.36
2023-05-09T00:40:33.275Z,59.13
2023-05-09T00:41:33.298Z,58.76
2023-05-09T00:42:33.283Z,59.47
2023-05-09T00:43:33.301Z,58.80
2023-05-09T00:44:33.302Z,58.49
2023-05-09T00:45:33.278Z,61.72
2023-05-09T00:46:33.277Z,58.29
2023-05-09T00:47:33.416Z,59.71
2023-05-09T00:48:33.262Z,59.21
2023-05-09T00:49:33.282Z,58.92
2023-05-09T00:50:33.239Z,60.82
2023-05-09T00:51:33.244Z,57.80
2023-05-09T00:52:33.238Z,56.75
2023-05-09T00:53:33.286Z,56.58
2023-05-09T00:54:33.286Z,56.06
2023-05-09T00:55:33.241Z,59.29
2023-05-09T00:56:33.176Z,58.10
2023-05-09T00:57:33.196Z,58.26
2023-05-09T00:58:33.192Z,58.34
2023-05-09T00:59:33.185Z,59.54
2023-05-09T01:00:33.178Z,57.05
2023-05-09T01:01:33.235Z,57.36
2023-05-09T01:02:33.264Z,54.71
2023-05-09T01:03:33.234Z,57.24
2023-05-09T01:04:33.142Z,60.38
2023-05-09T01:05:33.207Z,60.83
2023-05-09T01:06:33.124Z,58.67
2023-05-09T01:07:33.148Z,60.27
2023-05-09T01:08:33.109Z,58.38
2023-05-09T01:09:33.112Z,58.01
2023-05-09T01:10:33.199Z,54.41
2023-05-09T01:11:33.129Z,59.00
2023-05-09T01:12:33.086Z,60.62
2023-05-09T01:13:33.120Z,58.11
2023-05-09T01:14:33.088Z,58.40
2023-05-09T01:15:33.134Z,58.62
2023-05-09T01:16:33.060Z,56.53
2023-05-09T01:17:33.114Z,59.34
2023-05-09T01:18:33.082Z,58.49
2023-05-09T01:19:33.102Z,56.99
2023-05-09T01:20:33.027Z,59.02
2023-05-09T01:21:33.059Z,58.01
2023-05-09T01:22:33.026Z,60.55
2023-05-09T01:23:33.031Z,60.52
2023-05-09T01:24:33.019Z,56.87
2023-05-09T01:25:33.048Z,60.16
2023-05-09T01:26:33.089Z,58.92
2023-05-09T01:27:33.009Z,60.99
2023-05-09T01:28:32.987Z,58.35
2023-05-09T01:29:33.018Z,60.65
2023-05-09T01:30:32.987Z,57.64
2023-05-09T01:31:33.006Z,56.60
2023-05-09T01:32:32.977Z,56.72
2023-05-09T01:33:32.976Z,61.51
2023-05-09T01:34:32.951Z,59.96
2023-05-09T01:35:32.967Z,57.69
2023-05-09T01:36:32.962Z,58.17
2023-05-09T01:37:33.008Z,58.83
2023-05-09T01:38:32.924Z,59.69
2023-05-09T01:39:32.936Z,58.05
2023-05-09T01:40:32.893Z,58.18
2023-05-09T01:41:32.931Z,57.84
2023-05-09T01:42:33.011Z,59.64
2023-05-09T01:43:32.897Z,60.45
2023-05-09T01:44:32.875Z,58.91
2023-05-09T01:45:32.921Z,59.86
2023-05-09T01:46:32.874Z,57.90
2023-05-09T01:47:32.893Z,59.40
2023-05-09T01:48:32.849Z,56.26
2023-05-09T01:49:32.862Z,57.72
2023-05-09T01:50:32.824Z,59.49
2023-05-09T01:51:32.842Z,58.56
2023-05-09T01:52:32.835Z,59.18
2023-05-09T01:53:32.824Z,59.51
2023-05-09T01:54:32.797Z,58.43
2023-05-09T01:55:32.823Z,61.42
2023-05-09T01:56:32.787Z,58.19
2023-05-09T01:57:32.792Z,60.27
2023-05-09T01:58:32.877Z,60.28
2023-05-09T01:59:32.790Z,59.19
2023-05-09T02:00:32.753Z,59.23
2023-05-09T02:01:32.764Z,57.24
2023-05-09T02:02:32.816Z,58.02
2023-05-09T02:03:32.791Z,60.24
2023-05-09T02:04:32.735Z,59.85
2023-05-09T02:05:32.725Z,58.59
2023-05-09T02:06:32.760Z,61.39
2023-05-09T02:07:32.767Z,59.36
2023-05-09T02:08:32.718Z,58.08
2023-05-09T02:09:32.742Z,60.92
2023-05-09T02:10:32.686Z,57.27
2023-05-09T02:11:32.725Z,59.44
2023-05-09T02:12:32.694Z,58.46
2023-05-09T02:13:32.695Z,58.61
2023-05-09T02:14:32.777Z,59.39
2023-05-09T02:15:33.072Z,60.81
2023-05-09T02:16:32.681Z,59.95
2023-05-09T02:17:32.659Z,60.42
2023-05-09T02:18:32.750Z,60.90
2023-05-09T02:19:32.651Z,61.34
2023-05-09T02:20:32.634Z,58.70
2023-05-09T02:21:32.670Z,59.93
2023-05-09T02:22:32.606Z,56.64
2023-05-09T02:23:32.611Z,59.38
2023-05-09T02:24:32.594Z,60.38
2023-05-09T02:25:32.611Z,60.95
2023-05-09T02:26:32.599Z,59.47
2023-05-09T02:27:32.609Z,59.09
2023-05-09T02:28:32.562Z,59.46
2023-05-09T02:29:32.573Z,62.11
2023-05-09T02:30:32.667Z,58.74
2023-05-09T02:31:32.602Z,59.10
2023-05-09T02:32:32.624Z,58.13
2023-05-09T02:33:32.546Z,60.60
2023-05-09T02:34:32.519Z,60.74
2023-05-09T02:35:32.582Z,59.66
2023-05-09T02:36:32.521Z,60.45
2023-05-09T02:37:32.624Z,61.09
2023-05-09T02:38:32.526Z,62.75
2023-05-09T02:39:32.518Z,61.55
2023-05-09T02:40:32.502Z,63.30
2023-05-09T02:41:32.503Z,63.25
2023-05-09T02:42:32.491Z,62.03
2023-05-09T02:43:32.505Z,62.99
2023-05-09T02:44:32.452Z,61.31
2023-05-09T02:45:32.467Z,62.90
2023-05-09T02:46:32.616Z,62.49
2023-05-09T02:47:32.471Z,63.75
2023-05-09T02:48:32.427Z,65.16
2023-05-09T02:49:32.897Z,64.19
2023-05-09T02:50:32.436Z,62.03
2023-05-09T02:51:32.446Z,63.68
2023-05-09T02:52:32.419Z,64.94
2023-05-09T02:53:32.410Z,63.66
2023-05-09T02:54:32.387Z,65.27
2023-05-09T02:55:32.391Z,65.96
2023-05-09T02:56:32.411Z,63.66
2023-05-09T02:57:32.407Z,63.81
2023-05-09T02:58:32.369Z,62.14
2023-05-09T02:59:32.382Z,65.37
2023-05-09T03:00:32.400Z,64.99
2023-05-09T03:01:32.424Z,64.89
2023-05-09T03:02:32.532Z,64.69
2023-05-09T03:03:32.421Z,64.42
2023-05-09T03:04:32.352Z,64.73
2023-05-09T03:05:32.360Z,63.05
2023-05-09T03:06:32.307Z,64.82
2023-05-09T03:07:32.351Z,64.60
2023-05-09T03:08:32.341Z,65.77
2023-05-09T03:09:32.309Z,65.92
2023-05-09T03:10:32.294Z,63.85
2023-05-09T03:11:32.336Z,62.92
2023-05-09T03:12:32.306Z,64.61
2023-05-09T03:13:32.280Z,64.51
2023-05-09T03:14:32.287Z,63.78
2023-05-09T03:15:32.285Z,62.53
2023-05-09T03:16:32.273Z,64.49
2023-05-09T03:17:32.318Z,64.16
2023-05-09T03:18:32.335Z,63.04
2023-05-09T03:19:32.255Z,64.28
2023-05-09T03:20:32.229Z,65.18
2023-05-09T03:21:32.251Z,65.71
2023-05-09T03:22:32.212Z,63.76
2023-05-09T03:23:32.263Z,65.46
2023-05-09T03:24:32.218Z,64.86
2023-05-09T03:25:32.593Z,65.93
2023-05-09T03:26:32.201Z,66.24
2023-05-09T03:27:32.198Z,64.14
2023-05-09T03:28:32.178Z,64.15
2023-05-09T03:29:32.188Z,64.94
2023-05-09T03:30:32.197Z,64.65
2023-05-09T03:31:32.256Z,65.24
2023-05-09T03:32:32.200Z,64.13
2023-05-09T03:33:32.170Z,65.92
2023-05-09T03:34:32.238Z,65.85
2023-05-09T03:35:32.215Z,64.62
2023-05-09T03:36:32.165Z,64.80
2023-05-09T03:37:32.167Z,64.64
2023-05-09T03:38:32.208Z,64.83
2023-05-09T03:39:32.122Z,65.29
2023-05-09T03:40:32.118Z,66.02
2023-05-09T03:41:32.134Z,66.28
2023-05-09T03:42:32.143Z,64.43
2023-05-09T03:43:32.127Z,64.07
2023-05-09T03:44:32.094Z,65.40
2023-05-09T03:45:32.093Z,66.79
2023-05-09T03:46:32.176Z,65.96
2023-05-09T03:47:32.142Z,66.16
2023-05-09T03:48:32.078Z,63.84
2023-05-09T03:49:32.055Z,64.49
2023-05-09T03:50:32.124Z,65.03
2023-05-09T03:51:32.055Z,65.44
2023-05-09T03:52:32.057Z,65.32
2023-05-09T03:53:32.081Z,65.38
2023-05-09T03:54:32.015Z,65.52
2023-05-09T03:55:32.054Z,65.43
2023-05-09T03:56:32.022Z,64.96
2023-05-09T03:57:32.063Z,66.01
2023-05-09T03:58:32.010Z,65.41
2023-05-09T03:59:32.007Z,64.39
2023-05-09T04:00:32.001Z,65.73
2023-05-09T04:01:32.018Z,64.68
2023-05-09T04:02:32.128Z,65.87
2023-05-09T04:03:32.141Z,65.65
2023-05-09T04:04:31.955Z,64.77
2023-05-09T04:05:32.053Z,65.17
2023-05-09T04:06:32.044Z,64.98
2023-05-09T04:07:31.992Z,65.72
2023-05-09T04:08:31.931Z,65.85
2023-05-09T04:09:31.951Z,64.64
2023-05-09T04:10:31.926Z,65.31
2023-05-09T04:11:31.951Z,65.05
2023-05-09T04:12:31.924Z,65.08
2023-05-09T04:13:31.979Z,64.45
2023-05-09T04:14:31.912Z,65.11
2023-05-09T04:15:31.913Z,65.86
2023-05-09T04:16:31.918Z,66.14
2023-05-09T04:17:31.905Z,65.73
2023-05-09T04:18:31.891Z,64.44
2023-05-09T04:19:31.927Z,65.84
2023-05-09T04:20:31.848Z,64.82
2023-05-09T04:21:31.879Z,64.71
2023-05-09T04:22:31.936Z,65.30
2023-05-09T04:23:31.857Z,65.03
2023-05-09T04:24:31.851Z,65.52
2023-05-09T04:25:31.851Z,65.32
2023-05-09T04:26:31.811Z,64.66
2023-05-09T04:27:31.819Z,66.33
2023-05-09T04:28:31.827Z,64.51
2023-05-09T04:29:31.792Z,64.10
2023-05-09T04:30:31.816Z,64.14
2023-05-09T04:31:31.832Z,63.11
2023-05-09T04:32:31.850Z,64.47
2023-05-09T04:33:31.768Z,63.76
2023-05-09T04:34:31.770Z,63.10
2023-05-09T04:35:31.761Z,62.68
2023-05-09T04:36:31.735Z,64.81
2023-05-09T04:37:31.775Z,64.42
2023-05-09T04:38:31.856Z,65.19
2023-05-09T04:39:31.719Z,63.79
2023-05-09T04:40:31.714Z,63.62
2023-05-09T04:41:31.729Z,64.56
2023-05-09T04:42:31.690Z,65.33
2023-05-09T04:43:31.733Z,65.14
2023-05-09T04:44:31.687Z,65.01
2023-05-09T04:45:31.708Z,62.92
2023-05-09T04:46:31.692Z,64.46
2023-05-09T04:47:31.694Z,64.86
2023-05-09T04:48:31.705Z,64.35
2023-05-09T04:49:31.759Z,63.35
2023-05-09T04:50:31.655Z,63.41
2023-05-09T04:51:31.755Z,62.85
2023-05-09T04:52:31.649Z,61.56
2023-05-09T04:53:31.620Z,62.16
2023-05-09T04:54:31.696Z,62.43
2023-05-09T04:55:31.605Z,62.70
2023-05-09T04:56:31.584Z,62.48
2023-05-09T04:57:31.610Z,63.19
2023-05-09T04:58:31.671Z,62.69
2023-05-09T04:59:31.579Z,61.38
2023-05-09T05:00:31.578Z,61.67
2023-05-09T05:01:31.609Z,62.57
2023-05-09T05:02:31.597Z,62.24
2023-05-09T05:03:31.580Z,63.30
2023-05-09T05:04:31.551Z,62.48
2023-05-09T05:05:33.674Z,65.65
2023-05-09T05:06:31.508Z,65.39
2023-05-09T05:07:31.520Z,63.45
2023-05-09T05:08:31.513Z,62.95
2023-05-09T05:09:31.521Z,62.64
2023-05-09T05:10:31.574Z,61.83
2023-05-09T05:11:31.504Z,62.32
2023-05-09T05:12:31.511Z,62.62
2023-05-09T05:13:31.483Z,62.33
2023-05-09T05:14:31.458Z,62.25
2023-05-09T05:15:31.464Z,62.12
2023-05-09T05:16:31.459Z,63.78
2023-05-09T05:17:31.490Z,62.62
2023-05-09T05:18:31.451Z,60.62
2023-05-09T05:19:31.455Z,60.70
2023-05-09T05:20:31.402Z,60.86
2023-05-09T05:21:31.448Z,61.38
2023-05-09T05:22:32.766Z,61.64
2023-05-09T05:23:31.401Z,62.41
2023-05-09T05:24:31.398Z,62.79
2023-05-09T05:25:31.426Z,61.07
2023-05-09T05:26:31.461Z,60.53
2023-05-09T05:27:31.362Z,61.32
2023-05-09T05:28:31.608Z,62.33
2023-05-09T05:29:31.351Z,61.35
2023-05-09T05:30:34.016Z,60.76
2023-05-09T05:31:31.384Z,59.63
2023-05-09T05:32:31.351Z,59.92
2023-05-09T05:33:31.308Z,60.35
2023-05-09T05:34:31.325Z,58.40
2023-05-09T05:35:31.296Z,59.03
2023-05-09T05:36:31.272Z,60.36
2023-05-09T05:37:31.307Z,61.71
2023-05-09T05:38:31.260Z,60.22
2023-05-09T05:39:31.289Z,61.80
2023-05-09T05:40:31.268Z,60.54
2023-05-09T05:41:31.251Z,62.30
2023-05-09T05:42:31.313Z,61.24
2023-05-09T05:43:31.227Z,59.00
2023-05-09T05:44:31.260Z,62.08
2023-05-09T05:45:31.301Z,61.77
2023-05-09T05:46:31.230Z,59.78
2023-05-09T05:47:31.252Z,61.23
2023-05-09T05:48:31.253Z,63.40
2023-05-09T05:49:31.218Z,61.48
2023-05-09T05:50:31.217Z,61.87
2023-05-09T05:51:31.196Z,60.96
2023-05-09T05:52:31.181Z,61.53
2023-05-09T05:53:32.684Z,60.37
2023-05-09T05:54:31.146Z,60.38
2023-05-09T05:55:31.155Z,60.04
2023-05-09T05:56:31.134Z,61.65
2023-05-09T05:57:31.176Z,61.38
2023-05-09T05:58:31.208Z,60.04
2023-05-09T05:59:31.198Z,61.12
2023-05-09T06:00:31.076Z,60.23
2023-05-09T06:01:31.106Z,58.29
2023-05-09T06:02:31.339Z,61.14
2023-05-09T06:03:31.295Z,59.72
2023-05-09T06:04:31.059Z,60.16
2023-05-09T06:05:31.066Z,61.54
2023-05-09T06:06:31.067Z,60.04
2023-05-09T06:07:31.042Z,59.99
2023-05-09T06:08:31.062Z,60.69
2023-05-09T06:09:31.054Z,61.59
2023-05-09T06:10:30.999Z,62.45
2023-05-09T06:11:31.008Z,62.48
2023-05-09T06:12:31.019Z,61.93
2023-05-09T06:13:31.008Z,58.68
2023-05-09T06:14:31.058Z,60.56
2023-05-09T06:15:31.004Z,61.76
2023-05-09T06:16:31.037Z,60.39
2023-05-09T06:17:30.973Z,60.63
2023-05-09T06:18:30.931Z,60.75
2023-05-09T06:19:30.993Z,59.13
2023-05-09T06:20:30.926Z,60.68
2023-05-09T06:21:30.924Z,61.18
2023-05-09T06:22:30.929Z,59.78
2023-05-09T06:23:30.904Z,60.51
2023-05-09T06:24:35.835Z,61.33
2023-05-09T06:25:31.913Z,60.64
2023-05-09T06:26:30.867Z,58.74
2023-05-09T06:27:30.904Z,60.94
2023-05-09T06:28:30.884Z,60.04
2023-05-09T06:29:30.887Z,59.47
2023-05-09T06:30:30.929Z,58.47
2023-05-09T06:31:30.930Z,59.69
2023-05-09T06:32:30.893Z,58.07
2023-05-09T06:33:30.832Z,59.28
2023-05-09T06:34:30.840Z,59.46
2023-05-09T06:35:30.815Z,59.87
2023-05-09T06:36:30.840Z,59.73
2023-05-09T06:37:30.806Z,58.09
2023-05-09T06:38:30.801Z,59.03
2023-05-09T06:39:30.828Z,59.62
2023-05-09T06:40:30.782Z,59.34
2023-05-09T06:41:30.799Z,58.19
2023-05-09T06:42:30.752Z,58.12
2023-05-09T06:43:30.759Z,59.11
2023-05-09T06:44:30.731Z,59.78
2023-05-09T06:45:30.771Z,59.22
2023-05-09T06:46:30.899Z,59.74
2023-05-09T06:47:30.766Z,58.15
2023-05-09T06:48:30.713Z,59.44
2023-05-09T06:49:30.761Z,57.90
2023-05-09T06:50:32.835Z,57.82
2023-05-09T06:51:30.704Z,57.11
2023-05-09T06:52:30.683Z,59.31
2023-05-09T06:53:30.690Z,59.64
2023-05-09T06:54:30.691Z,59.82
2023-05-09T06:55:30.673Z,59.06
2023-05-09T06:56:30.659Z,57.02
2023-05-09T06:57:30.673Z,58.18
2023-05-09T06:58:30.643Z,57.25
2023-05-09T06:59:30.687Z,58.40
2023-05-09T07:00:30.639Z,60.08
2023-05-09T07:01:30.655Z,57.34
2023-05-09T07:02:30.750Z,57.75
2023-05-09T07:03:30.641Z,56.29
2023-05-09T07:04:30.606Z,59.47
2023-05-09T07:05:30.632Z,58.89
2023-05-09T07:06:30.587Z,58.08
2023-05-09T07:07:30.604Z,59.30
2023-05-09T07:08:30.634Z,58.56
2023-05-09T07:09:30.589Z,60.04
2023-05-09T07:10:30.568Z,58.51
2023-05-09T07:11:30.568Z,58.87
2023-05-09T07:12:30.541Z,57.85
2023-05-09T07:13:30.594Z,58.86
2023-05-09T07:14:30.546Z,58.00
2023-05-09T07:15:41.103Z,60.75
2023-05-09T07:16:31.589Z,59.75
2023-05-09T07:17:30.562Z,58.34
2023-05-09T07:18:30.615Z,57.59
2023-05-09T07:19:30.554Z,59.19
2023-05-09T07:20:30.489Z,57.67
2023-05-09T07:21:30.504Z,58.17
2023-05-09T07:22:32.140Z,58.45
2023-05-09T07:23:30.510Z,58.37
2023-05-09T07:24:30.463Z,57.69
2023-05-09T07:25:30.479Z,57.64
2023-05-09T07:26:30.485Z,57.74
2023-05-09T07:27:30.475Z,58.72
2023-05-09T07:28:30.501Z,59.17
2023-05-09T07:29:30.453Z,58.51
2023-05-09T07:30:30.449Z,56.29
2023-05-09T07:31:30.445Z,58.01
2023-05-09T07:32:30.460Z,56.19
2023-05-09T07:33:30.427Z,57.21
2023-05-09T07:34:30.562Z,59.00
2023-05-09T07:35:30.425Z,57.43
2023-05-09T07:36:30.477Z,57.67
2023-05-09T07:37:30.407Z,57.98
2023-05-09T07:38:30.372Z,57.85
2023-05-09T07:39:30.401Z,57.99
2023-05-09T07:40:30.369Z,57.31
2023-05-09T07:41:30.371Z,57.41
2023-05-09T07:42:30.423Z,58.58
2023-05-09T07:43:30.348Z,57.11
2023-05-09T07:44:30.341Z,58.08
2023-05-09T07:45:30.377Z,56.97
2023-05-09T07:46:30.392Z,55.27
2023-05-09T07:47:30.361Z,56.23
2023-05-09T07:48:30.321Z,55.93
2023-05-09T07:49:30.324Z,57.56
2023-05-09T07:50:31.050Z,57.50
2023-05-09T07:51:30.303Z,57.97
2023-05-09T07:52:30.306Z,58.62
2023-05-09T07:53:30.302Z,57.93
2023-05-09T07:54:30.259Z,58.99
2023-05-09T07:55:30.279Z,59.57
2023-05-09T07:56:30.258Z,59.33
2023-05-09T07:57:30.264Z,58.42
2023-05-09T07:58:30.268Z,57.28
2023-05-09T07:59:30.253Z,57.28
2023-05-09T08:00:31.049Z,58.94
2023-05-09T08:01:30.241Z,57.87
2023-05-09T08:02:30.283Z,59.46
2023-05-09T08:03:30.304Z,59.00
2023-05-09T08:04:30.259Z,59.25
2023-05-09T08:05:30.208Z,59.42
2023-05-09T08:06:30.278Z,60.25
2023-05-09T08:07:30.222Z,59.18
2023-05-09T08:08:30.188Z,58.88
2023-05-09T08:09:30.179Z,59.55
2023-05-09T08:10:30.158Z,57.81
2023-05-09T08:11:30.189Z,57.74
2023-05-09T08:12:30.139Z,56.03
2023-05-09T08:13:30.238Z,58.87
2023-05-09T08:14:30.124Z,59.43
2023-05-09T08:15:30.147Z,57.25
2023-05-09T08:16:30.263Z,59.93
2023-05-09T08:17:30.197Z,58.17
2023-05-09T08:18:30.095Z,56.98
2023-05-09T08:19:30.126Z,58.39
2023-05-09T08:20:30.081Z,59.41
2023-05-09T08:21:30.102Z,58.37
2023-05-09T08:22:30.167Z,60.72
2023-05-09T08:23:30.091Z,58.58
2023-05-09T08:24:30.069Z,56.91
2023-05-09T08:25:30.212Z,58.99
2023-05-09T08:26:30.045Z,57.98
2023-05-09T08:27:30.057Z,58.48
2023-05-09T08:28:30.056Z,59.28
2023-05-09T08:29:30.070Z,57.65
2023-05-09T08:30:30.018Z,58.54
2023-05-09T08:31:30.116Z,58.80
2023-05-09T08:32:30.045Z,59.77
2023-05-09T08:33:30.015Z,59.05
2023-05-09T08:34:29.992Z,59.28
2023-05-09T08:35:30.041Z,59.88
2023-05-09T08:36:29.989Z,58.89
2023-05-09T08:37:30.029Z,58.31
2023-05-09T08:38:30.052Z,59.18
2023-05-09T08:39:30.032Z,59.54
2023-05-09T08:40:29.982Z,59.38
2023-05-09T08:41:29.963Z,59.13
2023-05-09T08:42:29.942Z,58.91
2023-05-09T08:43:29.948Z,57.69
2023-05-09T08:44:29.932Z,58.08
2023-05-09T08:45:30.038Z,59.74
2023-05-09T08:46:29.987Z,59.09
2023-05-09T08:47:29.963Z,57.86
2023-05-09T08:48:29.922Z,58.62
2023-05-09T08:49:29.938Z,59.20
2023-05-09T08:50:29.902Z,58.25
2023-05-09T08:51:29.905Z,57.55
2023-05-09T08:52:29.910Z,57.73
2023-05-09T08:53:29.915Z,58.66
2023-05-09T08:54:29.983Z,58.43
2023-05-09T08:55:29.881Z,58.91
2023-05-09T08:56:29.837Z,59.96
2023-05-09T08:57:29.852Z,57.88
2023-05-09T08:58:29.824Z,57.96
2023-05-09T08:59:29.856Z,55.87
2023-05-09T09:00:29.812Z,57.16
2023-05-09T09:01:29.861Z,55.68
2023-05-09T09:02:29.893Z,57.82
2023-05-09T09:03:29.843Z,58.12
2023-05-09T09:04:29.839Z,57.79
2023-05-09T09:06:29.798Z,58.13
2023-05-09T09:07:31.171Z,58.32
2023-05-09T09:08:29.778Z,58.24
2023-05-09T09:09:29.765Z,58.37
2023-05-09T09:10:29.905Z,59.09
2023-05-09T09:11:29.766Z,57.82
2023-05-09T09:12:29.733Z,59.81
2023-05-09T09:13:29.826Z,60.08
2023-05-09T09:14:29.720Z,58.33
2023-05-09T09:15:29.753Z,57.34
2023-05-09T09:16:29.752Z,60.34
2023-05-09T09:17:29.741Z,59.57
2023-05-09T09:18:29.686Z,59.30
2023-05-09T09:19:29.704Z,59.27
2023-05-09T09:20:29.692Z,58.92
2023-05-09T09:21:29.703Z,56.97
2023-05-09T09:22:29.666Z,57.62
2023-05-09T09:23:29.683Z,57.38
2023-05-09T09:24:29.652Z,58.70
2023-05-09T09:25:29.679Z,59.37
2023-05-09T09:26:29.731Z,59.48
2023-05-09T09:27:29.636Z,58.06
2023-05-09T09:28:29.681Z,57.25
2023-05-09T09:29:29.637Z,57.72
2023-05-09T09:30:29.596Z,58.16
2023-05-09T09:31:29.618Z,56.03
2023-05-09T09:32:29.603Z,57.77
2023-05-09T09:33:29.639Z,58.12
2023-05-09T09:34:29.577Z,58.51
2023-05-09T09:35:29.597Z,57.24
2023-05-09T09:36:29.575Z,58.38
2023-05-09T09:37:29.593Z,56.18
2023-05-09T09:38:29.541Z,58.53
2023-05-09T09:39:29.572Z,58.67
2023-05-09T09:40:29.544Z,58.31
2023-05-09T09:41:29.576Z,57.89
2023-05-09T09:42:29.656Z,59.01
2023-05-09T09:43:29.560Z,58.00
2023-05-09T09:44:29.502Z,57.71
2023-05-09T09:45:29.512Z,58.64
2023-05-09T09:46:29.520Z,58.60
2023-05-09T09:47:29.517Z,59.95
2023-05-09T09:48:29.497Z,58.87
2023-05-09T09:49:29.492Z,58.75
2023-05-09T09:50:29.468Z,58.31
2023-05-09T09:51:29.463Z,58.33
2023-05-09T09:52:29.454Z,58.14
2023-05-09T09:53:29.487Z,58.59
2023-05-09T09:54:29.476Z,56.96
2023-05-09T09:55:29.444Z,59.36
2023-05-09T09:56:29.429Z,59.07
2023-05-09T09:57:29.442Z,58.10
2023-05-09T09:58:29.532Z,57.08
2023-05-09T09:59:29.451Z,56.45
2023-05-09T10:00:29.392Z,57.44
2023-05-09T10:01:29.481Z,57.88
2023-05-09T10:02:29.384Z,57.11
2023-05-09T10:03:29.416Z,58.98
2023-05-09T10:04:29.352Z,58.24
2023-05-09T10:05:29.404Z,58.10
2023-05-09T10:06:29.343Z,58.04
2023-05-09T10:07:29.369Z,57.89
2023-05-09T10:08:29.351Z,58.00
2023-05-09T10:09:29.353Z,58.09
2023-05-09T10:10:29.314Z,57.70
2023-05-09T10:11:29.360Z,57.99
2023-05-09T10:12:29.313Z,59.90
2023-05-09T10:13:29.378Z,58.91
2023-05-09T10:14:29.375Z,58.54
2023-05-09T10:15:33.459Z,58.97
2023-05-09T10:16:40.135Z,58.44
2023-05-09T10:17:30.430Z,58.75
2023-05-09T10:18:29.511Z,56.59
2023-05-09T10:19:29.275Z,58.66
2023-05-09T10:20:29.246Z,58.79
2023-05-09T10:21:29.285Z,59.96
2023-05-09T10:22:29.239Z,58.52
2023-05-09T10:23:29.238Z,58.09
2023-05-09T10:24:29.224Z,58.87
2023-05-09T10:25:29.225Z,58.30
2023-05-09T10:26:29.251Z,57.24
2023-05-09T10:27:29.234Z,58.62
2023-05-09T10:28:29.186Z,57.70
2023-05-09T10:29:29.229Z,59.88
2023-05-09T10:30:29.383Z,57.55
2023-05-09T10:31:29.530Z,58.64
2023-05-09T10:32:29.162Z,57.17
2023-05-09T10:33:29.173Z,57.37
2023-05-09T10:34:29.174Z,58.15
2023-05-09T10:35:29.161Z,58.56
2023-05-09T10:36:29.138Z,57.75
2023-05-09T10:37:29.584Z,57.71
2023-05-09T10:38:29.131Z,58.52
2023-05-09T10:39:29.171Z,59.65
2023-05-09T10:40:29.097Z,59.18
2023-05-09T10:41:29.106Z,59.06
2023-05-09T10:42:29.094Z,57.26
2023-05-09T10:43:29.467Z,58.82
2023-05-09T10:44:29.081Z,58.16
2023-05-09T10:45:29.116Z,58.41
2023-05-09T10:46:29.188Z,59.57
2023-05-09T10:47:29.116Z,59.57
2023-05-09T10:48:29.046Z,59.74
2023-05-09T10:49:29.051Z,58.71
2023-05-09T10:50:29.021Z,59.44
2023-05-09T10:51:29.097Z,57.77
2023-05-09T10:52:29.014Z,57.77
2023-05-09T10:53:29.033Z,57.35
2023-05-09T10:54:30.899Z,58.71
2023-05-09T10:55:29.022Z,59.51
2023-05-09T10:56:29.014Z,59.09
2023-05-09T10:57:29.032Z,60.01
2023-05-09T10:58:28.987Z,59.28
2023-05-09T10:59:28.988Z,60.19
2023-05-09T11:00:28.967Z,58.23
2023-05-09T11:01:29.025Z,58.89
2023-05-09T11:02:29.137Z,59.39
2023-05-09T11:03:29.042Z,56.94
2023-05-09T11:04:28.980Z,58.44
2023-05-09T11:05:28.970Z,56.92
2023-05-09T11:06:28.940Z,57.24
2023-05-09T11:07:28.932Z,58.52
2023-05-09T11:08:28.935Z,57.72
2023-05-09T11:09:28.948Z,57.19
2023-05-09T11:10:28.890Z,59.14
2023-05-09T11:11:28.918Z,57.99
2023-05-09T11:12:28.888Z,56.80
2023-05-09T11:13:28.928Z,56.85
2023-05-09T11:14:28.881Z,58.05
2023-05-09T11:15:28.895Z,57.81
2023-05-09T11:16:28.907Z,57.53
2023-05-09T11:17:28.901Z,56.21
2023-05-09T11:18:28.933Z,58.16
2023-05-09T11:19:28.848Z,56.89
2023-05-09T11:20:28.824Z,57.85
2023-05-09T11:21:28.856Z,56.61
2023-05-09T11:22:28.838Z,58.58
2023-05-09T11:23:28.826Z,56.99
2023-05-09T11:24:28.803Z,58.00
2023-05-09T11:25:28.848Z,58.20
2023-05-09T11:26:28.796Z,56.47
2023-05-09T11:27:28.798Z,58.93
2023-05-09T11:28:28.822Z,59.32
2023-05-09T11:29:28.804Z,56.58
2023-05-09T11:30:28.787Z,59.62
2023-05-09T11:31:28.806Z,58.24
2023-05-09T11:32:28.791Z,59.10
2023-05-09T11:33:28.808Z,56.98
2023-05-09T11:34:28.843Z,58.20
2023-05-09T11:35:28.807Z,56.93
2023-05-09T11:36:28.727Z,57.87
2023-05-09T11:37:28.732Z,57.32
2023-05-09T11:38:28.715Z,55.84
2023-05-09T11:39:28.717Z,56.55
2023-05-09T11:40:28.709Z,59.14
2023-05-09T11:41:28.755Z,57.83
2023-05-09T11:42:28.679Z,58.34
2023-05-09T11:43:28.692Z,58.50
2023-05-09T11:44:28.689Z,58.59
2023-05-09T11:45:28.714Z,57.25
2023-05-09T11:46:28.700Z,58.48
2023-05-09T11:47:28.737Z,56.53
2023-05-09T11:48:28.655Z,56.19
2023-05-09T11:49:28.642Z,56.92
2023-05-09T11:50:28.723Z,55.76
2023-05-09T11:51:28.635Z,57.26
2023-05-09T11:52:28.620Z,57.79
2023-05-09T11:53:28.640Z,58.34
2023-05-09T11:54:28.606Z,57.80
2023-05-09T11:55:28.636Z,58.34
2023-05-09T11:56:28.602Z,59.45
2023-05-09T11:57:28.590Z,58.40
2023-05-09T11:58:28.567Z,60.93
2023-05-09T11:59:28.573Z,61.29
2023-05-09T12:00:28.575Z,59.53
2023-05-09T12:01:28.585Z,59.63
2023-05-09T12:02:28.608Z,59.41
2023-05-09T12:03:28.772Z,60.65
2023-05-09T12:04:28.555Z,60.24
2023-05-09T12:05:28.556Z,61.47
2023-05-09T12:06:28.617Z,62.81
2023-05-09T12:07:28.522Z,61.41
2023-05-09T12:08:28.534Z,60.09
2023-05-09T12:09:28.527Z,61.60
2023-05-09T12:10:28.498Z,62.97
2023-05-09T12:11:28.510Z,62.46
2023-05-09T12:12:28.500Z,62.22
2023-05-09T12:13:28.539Z,60.75
2023-05-09T12:14:28.480Z,60.52
2023-05-09T12:15:28.465Z,60.70
2023-05-09T12:16:28.501Z,61.03
2023-05-09T12:17:28.466Z,60.64
2023-05-09T12:18:28.449Z,61.30
2023-05-09T12:19:28.475Z,60.48
2023-05-09T12:20:28.424Z,58.88
2023-05-09T12:21:28.434Z,59.91
2023-05-09T12:22:28.497Z,60.88
2023-05-09T12:23:28.434Z,61.46
2023-05-09T12:24:28.399Z,59.42
2023-05-09T12:25:28.435Z,58.19
2023-05-09T12:26:28.382Z,58.50
2023-05-09T12:27:28.396Z,58.20
2023-05-09T12:28:28.354Z,59.41
2023-05-09T12:29:28.367Z,61.93
2023-05-09T12:30:28.363Z,59.72
2023-05-09T12:31:28.373Z,59.14
2023-05-09T12:32:28.372Z,59.00
2023-05-09T12:33:28.343Z,58.21
2023-05-09T12:34:28.326Z,59.68
2023-05-09T12:35:28.363Z,61.49
2023-05-09T12:36:28.325Z,62.91
2023-05-09T12:37:28.309Z,60.58
2023-05-09T12:38:28.387Z,60.22
2023-05-09T12:39:28.306Z,59.29
2023-05-09T12:40:28.306Z,59.50
2023-05-09T12:41:37.145Z,58.20
2023-05-09T12:42:29.274Z,59.77
2023-05-09T12:43:28.289Z,59.30
2023-05-09T12:44:28.256Z,59.45
2023-05-09T12:45:28.262Z,58.74
2023-05-09T12:46:28.291Z,58.83
2023-05-09T12:47:28.306Z,58.13
2023-05-09T12:48:28.227Z,58.89
2023-05-09T12:49:28.230Z,57.53
2023-05-09T12:50:28.213Z,57.94
2023-05-09T12:51:28.220Z,55.26
2023-05-09T12:52:28.273Z,55.72
2023-05-09T12:53:28.228Z,58.08